Good Samaritan Village, Nebraska
Current Conditions -  °F | °C
As of 7:53 PM on Wednesday 22 Oct 2014 (Local Time) from KHSI Reporting Station
Overcast Overcast  
Wind Chill: 62°   Ceiling: 3400
Heat Index: 62°   Visibility: 9mi
Dew Point: 57°   Wind: 3mph
Humidity: 84%   Direction: 170°S
Pressure: 30.02"   Gusts: NA
Location:  40.5551°N, 98.369°W
Report Text: KHSI 230053Z AUTO 17003KT 9SM OVC034 17/14 A3002 RMK AO2 SLP162 T01670139
Loading
Personal Weather Stations






























Interactive Weather Map
Tropical Storm Tracking
New forecast layout! Learn more

10-Day Weather Forecast

Advertisements
Track Severe Weather on mobile